sensor_id;sensor_type;location;lat;lon;timestamp;P1;durP1;ratioP1;P2;durP2;ratioP2
32918;SDS011;19280;42.646;21.150;2023-07-09T00:01:46;13.88;;;8.80;;
32918;SDS011;19280;42.646;21.150;2023-07-09T00:04:12;13.15;;;7.40;;
32918;SDS011;19280;42.646;21.150;2023-07-09T00:06:38;12.00;;;7.95;;
32918;SDS011;19280;42.646;21.150;2023-07-09T00:09:05;12.02;;;8.00;;
32918;SDS011;19280;42.646;21.150;2023-07-09T00:11:31;12.07;;;7.57;;
32918;SDS011;19280;42.646;21.150;2023-07-09T00:13:57;15.43;;;8.15;;
32918;SDS011;19280;42.646;21.150;2023-07-09T00:16:24;12.95;;;8.40;;
32918;SDS011;19280;42.646;21.150;2023-07-09T00:18:51;11.75;;;7.75;;
32918;SDS011;19280;42.646;21.150;2023-07-09T00:21:17;12.10;;;8.20;;
32918;SDS011;19280;42.646;21.150;2023-07-09T00:23:45;13.18;;;7.60;;
32918;SDS011;19280;42.646;21.150;2023-07-09T00:26:14;11.57;;;8.00;;
32918;SDS011;19280;42.646;21.150;2023-07-09T00:28:41;11.07;;;8.20;;
32918;SDS011;19280;42.646;21.150;2023-07-09T00:31:14;10.73;;;7.90;;
32918;SDS011;19280;42.646;21.150;2023-07-09T00:33:40;15.63;;;7.88;;
32918;SDS011;19280;42.646;21.150;2023-07-09T00:36:16;12.05;;;7.82;;
32918;SDS011;19280;42.646;21.150;2023-07-09T00:38:43;11.38;;;7.65;;
32918;SDS011;19280;42.646;21.150;2023-07-09T00:41:16;13.40;;;7.30;;
32918;SDS011;19280;42.646;21.150;2023-07-09T00:43:44;12.40;;;8.32;;
32918;SDS011;19280;42.646;21.150;2023-07-09T00:48:36;12.32;;;7.75;;
32918;SDS011;19280;42.646;21.150;2023-07-09T00:51:04;11.95;;;7.63;;
32918;SDS011;19280;42.646;21.150;2023-07-09T00:53:34;14.43;;;8.10;;
32918;SDS011;19280;42.646;21.150;2023-07-09T00:56:08;10.73;;;7.45;;
32918;SDS011;19280;42.646;21.150;2023-07-09T00:58:35;11.85;;;7.45;;
32918;SDS011;19280;42.646;21.150;2023-07-09T01:01:02;23.20;;;8.40;;
32918;SDS011;19280;42.646;21.150;2023-07-09T01:05:59;15.55;;;7.63;;
32918;SDS011;19280;42.646;21.150;2023-07-09T01:08:26;13.18;;;7.85;;
32918;SDS011;19280;42.646;21.150;2023-07-09T01:10:55;15.95;;;7.20;;
32918;SDS011;19280;42.646;21.150;2023-07-09T01:13:21;17.63;;;7.90;;
32918;SDS011;19280;42.646;21.150;2023-07-09T01:15:47;16.55;;;7.93;;
32918;SDS011;19280;42.646;21.150;2023-07-09T01:18:14;14.88;;;7.65;;
32918;SDS011;19280;42.646;21.150;2023-07-09T01:20:40;9.98;;;7.20;;
32918;SDS011;19280;42.646;21.150;2023-07-09T01:23:06;9.75;;;7.15;;
32918;SDS011;19280;42.646;21.150;2023-07-09T01:25:33;10.93;;;7.63;;
32918;SDS011;19280;42.646;21.150;2023-07-09T01:27:59;13.77;;;7.50;;
32918;SDS011;19280;42.646;21.150;2023-07-09T01:30:35;10.80;;;7.43;;
32918;SDS011;19280;42.646;21.150;2023-07-09T01:33:01;15.00;;;8.15;;
32918;SDS011;19280;42.646;21.150;2023-07-09T01:35:28;12.23;;;7.53;;
32918;SDS011;19280;42.646;21.150;2023-07-09T01:37:55;10.38;;;7.50;;
32918;SDS011;19280;42.646;21.150;2023-07-09T01:40:22;15.35;;;7.88;;
32918;SDS011;19280;42.646;21.150;2023-07-09T01:42:49;13.20;;;7.03;;
32918;SDS011;19280;42.646;21.150;2023-07-09T01:45:15;14.13;;;7.30;;
32918;SDS011;19280;42.646;21.150;2023-07-09T01:47:42;11.77;;;7.15;;
32918;SDS011;19280;42.646;21.150;2023-07-09T01:50:09;14.15;;;7.15;;
32918;SDS011;19280;42.646;21.150;2023-07-09T01:52:35;11.27;;;6.85;;
32918;SDS011;19280;42.646;21.150;2023-07-09T01:55:02;9.70;;;6.90;;
32918;SDS011;19280;42.646;21.150;2023-07-09T01:57:28;14.65;;;7.40;;
32918;SDS011;19280;42.646;21.150;2023-07-09T01:59:58;13.43;;;6.93;;
32918;SDS011;19280;42.646;21.150;2023-07-09T02:02:25;12.15;;;7.25;;
32918;SDS011;19280;42.646;21.150;2023-07-09T02:04:52;12.38;;;7.40;;
32918;SDS011;19280;42.646;21.150;2023-07-09T02:07:19;12.15;;;6.65;;
32918;SDS011;19280;42.646;21.150;2023-07-09T02:09:45;12.07;;;7.15;;
32918;SDS011;19280;42.646;21.150;2023-07-09T02:12:12;16.42;;;7.68;;
32918;SDS011;19280;42.646;21.150;2023-07-09T02:14:38;20.63;;;7.55;;
32918;SDS011;19280;42.646;21.150;2023-07-09T02:17:04;13.68;;;7.10;;
32918;SDS011;19280;42.646;21.150;2023-07-09T02:19:30;11.48;;;6.75;;
32918;SDS011;19280;42.646;21.150;2023-07-09T02:21:57;11.23;;;7.25;;
32918;SDS011;19280;42.646;21.150;2023-07-09T02:24:23;12.05;;;6.47;;
32918;SDS011;19280;42.646;21.150;2023-07-09T02:26:56;15.02;;;7.30;;
32918;SDS011;19280;42.646;21.150;2023-07-09T02:29:23;11.18;;;6.68;;
32918;SDS011;19280;42.646;21.150;2023-07-09T02:31:50;14.60;;;7.25;;
32918;SDS011;19280;42.646;21.150;2023-07-09T02:34:17;12.40;;;6.90;;
32918;SDS011;19280;42.646;21.150;2023-07-09T02:36:43;12.27;;;7.13;;
32918;SDS011;19280;42.646;21.150;2023-07-09T02:39:10;18.73;;;6.82;;
32918;SDS011;19280;42.646;21.150;2023-07-09T02:41:36;13.55;;;7.15;;
32918;SDS011;19280;42.646;21.150;2023-07-09T02:44:03;18.45;;;7.35;;
32918;SDS011;19280;42.646;21.150;2023-07-09T02:46:29;18.73;;;7.50;;
32918;SDS011;19280;42.646;21.150;2023-07-09T02:48:55;14.88;;;8.20;;
32918;SDS011;19280;42.646;21.150;2023-07-09T02:51:22;15.07;;;7.93;;
32918;SDS011;19280;42.646;21.150;2023-07-09T02:53:49;12.95;;;8.35;;
32918;SDS011;19280;42.646;21.150;2023-07-09T02:56:15;15.35;;;7.95;;
32918;SDS011;19280;42.646;21.150;2023-07-09T02:58:41;17.92;;;9.70;;
32918;SDS011;19280;42.646;21.150;2023-07-09T03:01:07;18.25;;;10.45;;
32918;SDS011;19280;42.646;21.150;2023-07-09T03:03:34;18.63;;;9.95;;
32918;SDS011;19280;42.646;21.150;2023-07-09T03:06:00;13.02;;;8.88;;
32918;SDS011;19280;42.646;21.150;2023-07-09T03:08:26;16.80;;;8.73;;
32918;SDS011;19280;42.646;21.150;2023-07-09T03:10:52;15.43;;;9.05;;
32918;SDS011;19280;42.646;21.150;2023-07-09T03:13:18;13.00;;;8.45;;
32918;SDS011;19280;42.646;21.150;2023-07-09T03:15:53;13.77;;;8.40;;
32918;SDS011;19280;42.646;21.150;2023-07-09T03:18:19;12.25;;;7.75;;
32918;SDS011;19280;42.646;21.150;2023-07-09T03:20:45;15.20;;;8.00;;
32918;SDS011;19280;42.646;21.150;2023-07-09T03:23:11;18.30;;;7.72;;
32918;SDS011;19280;42.646;21.150;2023-07-09T03:25:41;12.38;;;7.63;;
32918;SDS011;19280;42.646;21.150;2023-07-09T03:28:07;11.43;;;7.50;;
32918;SDS011;19280;42.646;21.150;2023-07-09T03:30:33;24.50;;;8.02;;
32918;SDS011;19280;42.646;21.150;2023-07-09T03:32:59;12.45;;;7.13;;
32918;SDS011;19280;42.646;21.150;2023-07-09T03:35:26;11.20;;;6.88;;
32918;SDS011;19280;42.646;21.150;2023-07-09T03:37:52;13.48;;;6.90;;
32918;SDS011;19280;42.646;21.150;2023-07-09T03:40:22;11.93;;;7.07;;
32918;SDS011;19280;42.646;21.150;2023-07-09T03:42:48;16.88;;;8.13;;
32918;SDS011;19280;42.646;21.150;2023-07-09T03:45:15;12.80;;;7.05;;
32918;SDS011;19280;42.646;21.150;2023-07-09T03:47:41;14.43;;;6.80;;
32918;SDS011;19280;42.646;21.150;2023-07-09T03:50:07;14.57;;;8.10;;
32918;SDS011;19280;42.646;21.150;2023-07-09T03:52:34;14.10;;;6.75;;
32918;SDS011;19280;42.646;21.150;2023-07-09T03:55:00;9.05;;;6.55;;
32918;SDS011;19280;42.646;21.150;2023-07-09T03:57:29;9.73;;;6.05;;
32918;SDS011;19280;42.646;21.150;2023-07-09T03:59:55;11.43;;;5.78;;
32918;SDS011;19280;42.646;21.150;2023-07-09T04:02:21;10.18;;;6.43;;
32918;SDS011;19280;42.646;21.150;2023-07-09T04:04:47;10.32;;;6.38;;
32918;SDS011;19280;42.646;21.150;2023-07-09T04:07:14;11.13;;;6.25;;
32918;SDS011;19280;42.646;21.150;2023-07-09T04:09:40;10.85;;;5.68;;
32918;SDS011;19280;42.646;21.150;2023-07-09T04:12:06;8.68;;;4.80;;
32918;SDS011;19280;42.646;21.150;2023-07-09T04:14:32;7.85;;;4.13;;
32918;SDS011;19280;42.646;21.150;2023-07-09T04:16:58;7.05;;;4.18;;
32918;SDS011;19280;42.646;21.150;2023-07-09T04:19:24;7.22;;;3.78;;
32918;SDS011;19280;42.646;21.150;2023-07-09T04:21:50;11.15;;;3.85;;
32918;SDS011;19280;42.646;21.150;2023-07-09T04:24:17;6.38;;;3.90;;
32918;SDS011;19280;42.646;21.150;2023-07-09T04:26:43;6.50;;;3.97;;
32918;SDS011;19280;42.646;21.150;2023-07-09T04:29:09;7.72;;;3.90;;
32918;SDS011;19280;42.646;21.150;2023-07-09T04:31:36;4.95;;;3.35;;
32918;SDS011;19280;42.646;21.150;2023-07-09T04:34:02;5.38;;;3.72;;
32918;SDS011;19280;42.646;21.150;2023-07-09T04:36:29;7.88;;;3.75;;
32918;SDS011;19280;42.646;21.150;2023-07-09T04:38:56;8.52;;;3.60;;
32918;SDS011;19280;42.646;21.150;2023-07-09T04:41:22;9.40;;;4.57;;
32918;SDS011;19280;42.646;21.150;2023-07-09T04:43:48;7.63;;;4.40;;
32918;SDS011;19280;42.646;21.150;2023-07-09T04:46:14;7.20;;;4.03;;
32918;SDS011;19280;42.646;21.150;2023-07-09T04:48:40;6.40;;;3.85;;
32918;SDS011;19280;42.646;21.150;2023-07-09T04:51:06;7.90;;;4.40;;
32918;SDS011;19280;42.646;21.150;2023-07-09T04:53:33;5.05;;;3.58;;
32918;SDS011;19280;42.646;21.150;2023-07-09T04:55:59;10.48;;;4.00;;
32918;SDS011;19280;42.646;21.150;2023-07-09T04:58:27;5.93;;;3.80;;
32918;SDS011;19280;42.646;21.150;2023-07-09T05:00:56;5.68;;;3.67;;
32918;SDS011;19280;42.646;21.150;2023-07-09T05:03:22;5.50;;;3.70;;
32918;SDS011;19280;42.646;21.150;2023-07-09T05:05:48;7.47;;;3.78;;
32918;SDS011;19280;42.646;21.150;2023-07-09T05:08:15;6.70;;;3.75;;
32918;SDS011;19280;42.646;21.150;2023-07-09T05:10:42;8.82;;;3.58;;
32918;SDS011;19280;42.646;21.150;2023-07-09T05:13:08;5.88;;;3.58;;
32918;SDS011;19280;42.646;21.150;2023-07-09T05:15:34;7.15;;;3.22;;
32918;SDS011;19280;42.646;21.150;2023-07-09T05:18:00;6.43;;;3.60;;
32918;SDS011;19280;42.646;21.150;2023-07-09T05:20:26;7.43;;;3.80;;
32918;SDS011;19280;42.646;21.150;2023-07-09T05:22:52;6.35;;;3.78;;
32918;SDS011;19280;42.646;21.150;2023-07-09T05:25:18;7.35;;;3.72;;
32918;SDS011;19280;42.646;21.150;2023-07-09T05:27:44;6.65;;;3.60;;
32918;SDS011;19280;42.646;21.150;2023-07-09T05:30:10;4.75;;;3.10;;
32918;SDS011;19280;42.646;21.150;2023-07-09T05:32:37;5.78;;;3.30;;
32918;SDS011;19280;42.646;21.150;2023-07-09T05:35:03;7.13;;;3.08;;
32918;SDS011;19280;42.646;21.150;2023-07-09T05:37:29;4.70;;;3.25;;
32918;SDS011;19280;42.646;21.150;2023-07-09T05:39:56;4.70;;;3.13;;
32918;SDS011;19280;42.646;21.150;2023-07-09T05:42:22;6.72;;;3.00;;
32918;SDS011;19280;42.646;21.150;2023-07-09T05:44:48;6.07;;;3.33;;
32918;SDS011;19280;42.646;21.150;2023-07-09T05:47:14;8.77;;;3.40;;
32918;SDS011;19280;42.646;21.150;2023-07-09T05:49:40;6.38;;;3.70;;
32918;SDS011;19280;42.646;21.150;2023-07-09T05:52:06;8.57;;;2.60;;
32918;SDS011;19280;42.646;21.150;2023-07-09T05:54:32;7.97;;;3.45;;
32918;SDS011;19280;42.646;21.150;2023-07-09T05:56:58;9.20;;;3.53;;
32918;SDS011;19280;42.646;21.150;2023-07-09T05:59:24;7.38;;;3.47;;
32918;SDS011;19280;42.646;21.150;2023-07-09T06:01:50;6.20;;;3.88;;
32918;SDS011;19280;42.646;21.150;2023-07-09T06:04:17;7.00;;;4.10;;
32918;SDS011;19280;42.646;21.150;2023-07-09T06:06:43;9.27;;;3.97;;
32918;SDS011;19280;42.646;21.150;2023-07-09T06:09:09;11.55;;;4.55;;
32918;SDS011;19280;42.646;21.150;2023-07-09T06:11:35;9.77;;;4.18;;
32918;SDS011;19280;42.646;21.150;2023-07-09T06:14:01;10.30;;;4.55;;
32918;SDS011;19280;42.646;21.150;2023-07-09T06:16:27;12.93;;;4.90;;
32918;SDS011;19280;42.646;21.150;2023-07-09T06:18:53;8.43;;;4.43;;
32918;SDS011;19280;42.646;21.150;2023-07-09T06:21:19;8.55;;;3.63;;
32918;SDS011;19280;42.646;21.150;2023-07-09T06:23:46;5.82;;;3.38;;
32918;SDS011;19280;42.646;21.150;2023-07-09T06:26:12;7.65;;;3.58;;
32918;SDS011;19280;42.646;21.150;2023-07-09T06:28:38;6.43;;;3.30;;
32918;SDS011;19280;42.646;21.150;2023-07-09T06:31:04;8.65;;;3.10;;
32918;SDS011;19280;42.646;21.150;2023-07-09T06:33:30;7.47;;;3.28;;
32918;SDS011;19280;42.646;21.150;2023-07-09T06:35:57;11.18;;;3.40;;
32918;SDS011;19280;42.646;21.150;2023-07-09T06:38:23;4.45;;;3.10;;
32918;SDS011;19280;42.646;21.150;2023-07-09T06:40:49;7.75;;;4.07;;
32918;SDS011;19280;42.646;21.150;2023-07-09T06:43:16;5.32;;;2.97;;
32918;SDS011;19280;42.646;21.150;2023-07-09T06:45:56;7.35;;;3.05;;
32918;SDS011;19280;42.646;21.150;2023-07-09T06:48:23;7.32;;;3.58;;
32918;SDS011;19280;42.646;21.150;2023-07-09T06:50:49;6.18;;;3.40;;
32918;SDS011;19280;42.646;21.150;2023-07-09T06:53:15;8.18;;;3.13;;
32918;SDS011;19280;42.646;21.150;2023-07-09T06:55:43;4.88;;;3.53;;
32918;SDS011;19280;42.646;21.150;2023-07-09T06:58:09;8.75;;;3.42;;
32918;SDS011;19280;42.646;21.150;2023-07-09T07:00:35;7.38;;;3.30;;
32918;SDS011;19280;42.646;21.150;2023-07-09T07:03:02;6.55;;;3.47;;
32918;SDS011;19280;42.646;21.150;2023-07-09T07:05:28;7.85;;;3.15;;
32918;SDS011;19280;42.646;21.150;2023-07-09T07:07:54;6.78;;;3.67;;
32918;SDS011;19280;42.646;21.150;2023-07-09T07:10:20;9.13;;;3.40;;
32918;SDS011;19280;42.646;21.150;2023-07-09T07:12:47;8.57;;;3.60;;
32918;SDS011;19280;42.646;21.150;2023-07-09T07:15:14;7.03;;;3.83;;
32918;SDS011;19280;42.646;21.150;2023-07-09T07:17:41;5.47;;;3.38;;
32918;SDS011;19280;42.646;21.150;2023-07-09T07:20:07;9.70;;;3.53;;
32918;SDS011;19280;42.646;21.150;2023-07-09T07:22:34;4.60;;;3.47;;
32918;SDS011;19280;42.646;21.150;2023-07-09T07:25:00;7.75;;;3.10;;
32918;SDS011;19280;42.646;21.150;2023-07-09T07:27:26;5.20;;;3.28;;
32918;SDS011;19280;42.646;21.150;2023-07-09T07:29:55;4.80;;;3.00;;
32918;SDS011;19280;42.646;21.150;2023-07-09T07:32:21;8.70;;;3.40;;
32918;SDS011;19280;42.646;21.150;2023-07-09T07:34:47;6.10;;;3.30;;
32918;SDS011;19280;42.646;21.150;2023-07-09T07:37:14;5.55;;;3.60;;
32918;SDS011;19280;42.646;21.150;2023-07-09T07:39:40;8.80;;;4.63;;
32918;SDS011;19280;42.646;21.150;2023-07-09T07:42:06;7.68;;;4.05;;
32918;SDS011;19280;42.646;21.150;2023-07-09T07:44:32;5.63;;;3.97;;
32918;SDS011;19280;42.646;21.150;2023-07-09T07:46:58;5.20;;;3.30;;
32918;SDS011;19280;42.646;21.150;2023-07-09T07:49:24;7.38;;;3.75;;
32918;SDS011;19280;42.646;21.150;2023-07-09T07:51:50;8.15;;;4.55;;
32918;SDS011;19280;42.646;21.150;2023-07-09T07:54:16;10.52;;;4.55;;
32918;SDS011;19280;42.646;21.150;2023-07-09T07:56:43;6.00;;;3.72;;
32918;SDS011;19280;42.646;21.150;2023-07-09T07:59:10;6.63;;;3.67;;
32918;SDS011;19280;42.646;21.150;2023-07-09T08:01:36;10.48;;;3.80;;
32918;SDS011;19280;42.646;21.150;2023-07-09T08:04:02;7.05;;;2.90;;
32918;SDS011;19280;42.646;21.150;2023-07-09T08:06:28;11.85;;;3.15;;
32918;SDS011;19280;42.646;21.150;2023-07-09T08:08:56;11.35;;;3.22;;
32918;SDS011;19280;42.646;21.150;2023-07-09T08:11:22;6.80;;;3.00;;
32918;SDS011;19280;42.646;21.150;2023-07-09T08:13:49;9.05;;;2.30;;
32918;SDS011;19280;42.646;21.150;2023-07-09T08:16:15;3.88;;;2.72;;
32918;SDS011;19280;42.646;21.150;2023-07-09T08:18:41;4.63;;;2.65;;
32918;SDS011;19280;42.646;21.150;2023-07-09T08:21:07;9.98;;;3.05;;
32918;SDS011;19280;42.646;21.150;2023-07-09T08:23:34;5.57;;;2.80;;
32918;SDS011;19280;42.646;21.150;2023-07-09T08:26:01;4.10;;;3.00;;
32918;SDS011;19280;42.646;21.150;2023-07-09T08:28:27;5.97;;;2.90;;
32918;SDS011;19280;42.646;21.150;2023-07-09T08:30:54;6.57;;;2.53;;
32918;SDS011;19280;42.646;21.150;2023-07-09T08:33:20;5.78;;;2.30;;
32918;SDS011;19280;42.646;21.150;2023-07-09T08:35:48;10.27;;;3.60;;
32918;SDS011;19280;42.646;21.150;2023-07-09T08:44:07;4.85;;;3.15;;
32918;SDS011;19280;42.646;21.150;2023-07-09T08:48:34;3.75;;;2.80;;
32918;SDS011;19280;42.646;21.150;2023-07-09T08:51:46;8.13;;;4.18;;
32918;SDS011;19280;42.646;21.150;2023-07-09T08:53:53;6.38;;;2.45;;
32918;SDS011;19280;42.646;21.150;2023-07-09T08:58:46;6.68;;;2.53;;
32918;SDS011;19280;42.646;21.150;2023-07-09T09:01:20;5.63;;;2.50;;
32918;SDS011;19280;42.646;21.150;2023-07-09T09:03:48;7.50;;;2.92;;
32918;SDS011;19280;42.646;21.150;2023-07-09T09:06:17;4.38;;;2.40;;
32918;SDS011;19280;42.646;21.150;2023-07-09T09:08:46;3.72;;;2.38;;
32918;SDS011;19280;42.646;21.150;2023-07-09T09:13:39;5.97;;;2.83;;
32918;SDS011;19280;42.646;21.150;2023-07-09T09:18:35;4.38;;;2.83;;
32918;SDS011;19280;42.646;21.150;2023-07-09T09:21:06;4.25;;;2.70;;
32918;SDS011;19280;42.646;21.150;2023-07-09T09:23:52;6.68;;;2.90;;
32918;SDS011;19280;42.646;21.150;2023-07-09T09:26:21;7.80;;;3.05;;
32918;SDS011;19280;42.646;21.150;2023-07-09T09:28:48;6.10;;;2.67;;
32918;SDS011;19280;42.646;21.150;2023-07-09T09:31:14;9.02;;;2.83;;
32918;SDS011;19280;42.646;21.150;2023-07-09T09:33:41;3.72;;;2.47;;
32918;SDS011;19280;42.646;21.150;2023-07-09T09:36:15;7.82;;;3.35;;
32918;SDS011;19280;42.646;21.150;2023-07-09T09:38:42;6.60;;;3.95;;
32918;SDS011;19280;42.646;21.150;2023-07-09T09:41:16;4.88;;;2.70;;
32918;SDS011;19280;42.646;21.150;2023-07-09T09:43:43;8.02;;;3.40;;
32918;SDS011;19280;42.646;21.150;2023-07-09T09:46:12;4.85;;;2.78;;
32918;SDS011;19280;42.646;21.150;2023-07-09T09:48:43;6.25;;;3.03;;
32918;SDS011;19280;42.646;21.150;2023-07-09T09:51:11;10.10;;;4.57;;
32918;SDS011;19280;42.646;21.150;2023-07-09T09:53:39;6.32;;;2.70;;
32918;SDS011;19280;42.646;21.150;2023-07-09T09:58:35;6.10;;;3.47;;
32918;SDS011;19280;42.646;21.150;2023-07-09T10:01:05;7.75;;;3.28;;
32918;SDS011;19280;42.646;21.150;2023-07-09T10:03:33;5.35;;;3.45;;
32918;SDS011;19280;42.646;21.150;2023-07-09T10:05:59;7.78;;;3.13;;
32918;SDS011;19280;42.646;21.150;2023-07-09T10:08:33;7.80;;;3.80;;
32918;SDS011;19280;42.646;21.150;2023-07-09T10:11:12;6.25;;;2.90;;
32918;SDS011;19280;42.646;21.150;2023-07-09T10:13:43;6.57;;;3.08;;
32918;SDS011;19280;42.646;21.150;2023-07-09T10:16:27;8.40;;;3.55;;
32918;SDS011;19280;42.646;21.150;2023-07-09T10:21:31;6.38;;;2.70;;
32918;SDS011;19280;42.646;21.150;2023-07-09T10:26:51;6.95;;;2.90;;
32918;SDS011;19280;42.646;21.150;2023-07-09T10:29:25;7.15;;;2.85;;
32918;SDS011;19280;42.646;21.150;2023-07-09T10:35:05;8.68;;;3.50;;
32918;SDS011;19280;42.646;21.150;2023-07-09T10:39:59;6.20;;;3.55;;
32918;SDS011;19280;42.646;21.150;2023-07-09T10:45:22;5.30;;;3.03;;
32918;SDS011;19280;42.646;21.150;2023-07-09T10:47:52;4.68;;;2.40;;
32918;SDS011;19280;42.646;21.150;2023-07-09T10:52:50;5.07;;;2.97;;
32918;SDS011;19280;42.646;21.150;2023-07-09T10:55:20;6.80;;;2.83;;
32918;SDS011;19280;42.646;21.150;2023-07-09T11:00:16;4.97;;;3.00;;
32918;SDS011;19280;42.646;21.150;2023-07-09T11:02:43;5.30;;;3.30;;
32918;SDS011;19280;42.646;21.150;2023-07-09T11:05:10;11.02;;;3.30;;
32918;SDS011;19280;42.646;21.150;2023-07-09T11:10:17;6.60;;;3.95;;
32918;SDS011;19280;42.646;21.150;2023-07-09T11:12:46;7.15;;;3.83;;
32918;SDS011;19280;42.646;21.150;2023-07-09T11:15:18;7.20;;;3.20;;
32918;SDS011;19280;42.646;21.150;2023-07-09T11:17:46;7.85;;;4.07;;
32918;SDS011;19280;42.646;21.150;2023-07-09T11:20:21;7.53;;;3.15;;
32918;SDS011;19280;42.646;21.150;2023-07-09T11:22:53;7.65;;;3.58;;
32918;SDS011;19280;42.646;21.150;2023-07-09T11:25:31;5.93;;;3.20;;
32918;SDS011;19280;42.646;21.150;2023-07-09T11:28:06;5.57;;;2.90;;
32918;SDS011;19280;42.646;21.150;2023-07-09T11:30:34;15.77;;;3.75;;
32918;SDS011;19280;42.646;21.150;2023-07-09T11:33:18;9.57;;;2.80;;
32918;SDS011;19280;42.646;21.150;2023-07-09T11:35:46;7.10;;;3.05;;
32918;SDS011;19280;42.646;21.150;2023-07-09T11:38:15;4.90;;;3.05;;
32918;SDS011;19280;42.646;21.150;2023-07-09T11:40:46;4.72;;;2.97;;
32918;SDS011;19280;42.646;21.150;2023-07-09T11:43:25;6.00;;;3.00;;
32918;SDS011;19280;42.646;21.150;2023-07-09T11:45:52;11.05;;;4.22;;
32918;SDS011;19280;42.646;21.150;2023-07-09T11:48:25;4.68;;;3.10;;
32918;SDS011;19280;42.646;21.150;2023-07-09T11:50:52;4.30;;;2.63;;
32918;SDS011;19280;42.646;21.150;2023-07-09T11:55:52;4.47;;;2.85;;
32918;SDS011;19280;42.646;21.150;2023-07-09T11:58:18;7.32;;;2.88;;
32918;SDS011;19280;42.646;21.150;2023-07-09T12:00:48;10.60;;;2.97;;
32918;SDS011;19280;42.646;21.150;2023-07-09T12:03:15;8.23;;;3.40;;
32918;SDS011;19280;42.646;21.150;2023-07-09T12:05:46;5.43;;;3.22;;
32918;SDS011;19280;42.646;21.150;2023-07-09T12:08:14;7.40;;;3.22;;
32918;SDS011;19280;42.646;21.150;2023-07-09T12:10:41;5.50;;;3.35;;
32918;SDS011;19280;42.646;21.150;2023-07-09T12:13:10;7.00;;;3.03;;
32918;SDS011;19280;42.646;21.150;2023-07-09T12:15:38;7.43;;;3.20;;
32918;SDS011;19280;42.646;21.150;2023-07-09T12:18:09;6.47;;;3.53;;
32918;SDS011;19280;42.646;21.150;2023-07-09T12:20:36;4.70;;;2.70;;
32918;SDS011;19280;42.646;21.150;2023-07-09T12:25:50;9.07;;;2.85;;
32918;SDS011;19280;42.646;21.150;2023-07-09T12:28:16;6.38;;;3.05;;
32918;SDS011;19280;42.646;21.150;2023-07-09T12:30:49;6.20;;;3.30;;
32918;SDS011;19280;42.646;21.150;2023-07-09T12:33:21;6.70;;;3.55;;
32918;SDS011;19280;42.646;21.150;2023-07-09T12:35:48;4.70;;;2.60;;
32918;SDS011;19280;42.646;21.150;2023-07-09T12:38:19;6.25;;;3.10;;
32918;SDS011;19280;42.646;21.150;2023-07-09T12:40:46;8.70;;;3.03;;
32918;SDS011;19280;42.646;21.150;2023-07-09T12:43:13;4.65;;;2.65;;
32918;SDS011;19280;42.646;21.150;2023-07-09T12:45:39;7.25;;;3.35;;
32918;SDS011;19280;42.646;21.150;2023-07-09T12:48:05;7.40;;;2.72;;
32918;SDS011;19280;42.646;21.150;2023-07-09T12:50:33;4.05;;;2.33;;
32918;SDS011;19280;42.646;21.150;2023-07-09T12:53:02;6.40;;;2.72;;
32918;SDS011;19280;42.646;21.150;2023-07-09T12:55:29;11.10;;;3.00;;
32918;SDS011;19280;42.646;21.150;2023-07-09T12:57:57;4.20;;;2.40;;
32918;SDS011;19280;42.646;21.150;2023-07-09T13:00:30;4.93;;;2.42;;
32918;SDS011;19280;42.646;21.150;2023-07-09T13:02:57;6.13;;;2.40;;
32918;SDS011;19280;42.646;21.150;2023-07-09T13:05:24;3.88;;;2.50;;
32918;SDS011;19280;42.646;21.150;2023-07-09T13:07:51;3.33;;;2.55;;
32918;SDS011;19280;42.646;21.150;2023-07-09T13:10:19;4.50;;;2.15;;
32918;SDS011;19280;42.646;21.150;2023-07-09T13:12:49;6.38;;;2.80;;
32918;SDS011;19280;42.646;21.150;2023-07-09T13:15:25;5.95;;;2.25;;
32918;SDS011;19280;42.646;21.150;2023-07-09T13:17:56;8.82;;;2.70;;
32918;SDS011;19280;42.646;21.150;2023-07-09T13:20:23;4.47;;;2.60;;
32918;SDS011;19280;42.646;21.150;2023-07-09T13:22:49;6.40;;;2.92;;
32918;SDS011;19280;42.646;21.150;2023-07-09T13:25:16;6.55;;;2.60;;
32918;SDS011;19280;42.646;21.150;2023-07-09T13:27:42;4.15;;;2.60;;
32918;SDS011;19280;42.646;21.150;2023-07-09T13:30:11;9.27;;;2.80;;
32918;SDS011;19280;42.646;21.150;2023-07-09T13:32:37;5.97;;;2.65;;
32918;SDS011;19280;42.646;21.150;2023-07-09T13:35:12;7.45;;;3.10;;
32918;SDS011;19280;42.646;21.150;2023-07-09T13:37:38;3.83;;;2.40;;
32918;SDS011;19280;42.646;21.150;2023-07-09T13:40:04;6.50;;;3.15;;
32918;SDS011;19280;42.646;21.150;2023-07-09T13:42:31;5.43;;;2.83;;
32918;SDS011;19280;42.646;21.150;2023-07-09T13:44:57;5.32;;;2.60;;
32918;SDS011;19280;42.646;21.150;2023-07-09T13:47:23;4.90;;;2.67;;
32918;SDS011;19280;42.646;21.150;2023-07-09T13:49:49;3.83;;;2.25;;
32918;SDS011;19280;42.646;21.150;2023-07-09T13:52:18;3.22;;;2.30;;
32918;SDS011;19280;42.646;21.150;2023-07-09T13:54:44;3.83;;;2.30;;
32918;SDS011;19280;42.646;21.150;2023-07-09T13:57:14;4.55;;;2.67;;
32918;SDS011;19280;42.646;21.150;2023-07-09T13:59:40;6.32;;;2.63;;
32918;SDS011;19280;42.646;21.150;2023-07-09T14:02:17;5.22;;;2.58;;
32918;SDS011;19280;42.646;21.150;2023-07-09T14:04:44;4.53;;;2.58;;
32918;SDS011;19280;42.646;21.150;2023-07-09T14:10:09;4.70;;;2.50;;
32918;SDS011;19280;42.646;21.150;2023-07-09T14:12:37;4.63;;;2.35;;
32918;SDS011;19280;42.646;21.150;2023-07-09T14:15:05;5.38;;;2.50;;
32918;SDS011;19280;42.646;21.150;2023-07-09T14:17:36;3.08;;;2.30;;
32918;SDS011;19280;42.646;21.150;2023-07-09T14:20:03;2.92;;;2.25;;
32918;SDS011;19280;42.646;21.150;2023-07-09T14:22:34;7.47;;;2.42;;
32918;SDS011;19280;42.646;21.150;2023-07-09T14:25:00;8.80;;;3.05;;
32918;SDS011;19280;42.646;21.150;2023-07-09T14:27:27;5.30;;;2.58;;
32918;SDS011;19280;42.646;21.150;2023-07-09T14:29:53;4.65;;;2.70;;
32918;SDS011;19280;42.646;21.150;2023-07-09T14:34:51;4.07;;;2.40;;
32918;SDS011;19280;42.646;21.150;2023-07-09T14:37:17;5.97;;;2.40;;
32918;SDS011;19280;42.646;21.150;2023-07-09T14:39:43;4.38;;;2.50;;
32918;SDS011;19280;42.646;21.150;2023-07-09T14:42:12;5.13;;;2.50;;
32918;SDS011;19280;42.646;21.150;2023-07-09T14:44:40;3.17;;;2.42;;
32918;SDS011;19280;42.646;21.150;2023-07-09T14:47:10;5.80;;;2.20;;
32918;SDS011;19280;42.646;21.150;2023-07-09T14:49:37;4.03;;;2.67;;
32918;SDS011;19280;42.646;21.150;2023-07-09T14:52:04;7.38;;;2.40;;
32918;SDS011;19280;42.646;21.150;2023-07-09T14:54:31;4.72;;;2.33;;
32918;SDS011;19280;42.646;21.150;2023-07-09T14:56:57;13.07;;;3.45;;
32918;SDS011;19280;42.646;21.150;2023-07-09T14:59:24;3.85;;;2.40;;
32918;SDS011;19280;42.646;21.150;2023-07-09T15:01:50;3.38;;;2.20;;
32918;SDS011;19280;42.646;21.150;2023-07-09T15:04:30;6.60;;;2.58;;
32918;SDS011;19280;42.646;21.150;2023-07-09T15:06:57;7.22;;;2.10;;
32918;SDS011;19280;42.646;21.150;2023-07-09T15:09:25;5.07;;;2.22;;
32918;SDS011;19280;42.646;21.150;2023-07-09T15:11:52;4.75;;;2.05;;
32918;SDS011;19280;42.646;21.150;2023-07-09T15:14:18;10.63;;;2.00;;
32918;SDS011;19280;42.646;21.150;2023-07-09T15:16:46;5.05;;;2.25;;
32918;SDS011;19280;42.646;21.150;2023-07-09T15:19:16;2.45;;;2.00;;
32918;SDS011;19280;42.646;21.150;2023-07-09T15:21:43;4.13;;;2.00;;
32918;SDS011;19280;42.646;21.150;2023-07-09T15:26:46;3.70;;;1.90;;
32918;SDS011;19280;42.646;21.150;2023-07-09T15:29:14;3.83;;;1.85;;
32918;SDS011;19280;42.646;21.150;2023-07-09T15:31:43;4.85;;;1.52;;